createdAt,value
2019-02-04T00:03:51.717Z,101113.30
2019-02-04T00:06:20.920Z,101115.98
2019-02-04T00:08:50.826Z,101113.41
2019-02-04T00:11:20.688Z,101102.97
2019-02-04T00:13:50.036Z,101116.50
2019-02-04T00:16:20.164Z,101120.72
2019-02-04T00:18:50.098Z,101117.20
2019-02-04T00:21:19.565Z,101114.53
2019-02-04T00:23:49.358Z,101097.83
2019-02-04T00:26:18.572Z,101109.82
2019-02-04T00:28:47.788Z,101114.66
2019-02-04T00:31:17.820Z,101113.78
2019-02-04T00:33:47.032Z,101120.80
2019-02-04T00:36:16.520Z,101120.48
2019-02-04T00:38:46.325Z,101124.81
2019-02-04T00:41:38.902Z,101138.20
2019-02-04T00:43:47.355Z,101129.17
2019-02-04T00:46:17.115Z,101130.32
2019-02-04T00:48:46.350Z,101133.52
2019-02-04T00:54:07.314Z,101138.66
2019-02-04T00:56:29.047Z,101137.97
2019-02-04T00:58:58.959Z,101136.48
2019-02-04T01:01:28.841Z,101137.47
2019-02-04T01:03:58.081Z,101135.96
2019-02-04T01:06:27.567Z,101145.77
2019-02-04T01:08:57.044Z,101131.56
2019-02-04T01:11:27.086Z,101144.42
2019-02-04T01:13:56.933Z,101144.25
2019-02-04T01:16:26.482Z,101144.62
2019-02-04T01:18:56.155Z,101148.78
2019-02-04T01:21:26.078Z,101144.12
2019-02-04T01:23:55.359Z,101137.47
2019-02-04T01:26:24.935Z,101149.83
2019-02-04T01:28:54.727Z,101152.69
2019-02-04T01:31:24.194Z,101142.86
2019-02-04T01:33:54.041Z,101151.53
2019-02-04T01:36:23.522Z,101140.19
2019-02-04T01:38:54.854Z,101149.83
2019-02-04T01:41:24.060Z,101139.78
2019-02-04T01:43:54.576Z,101145.11
2019-02-04T01:46:23.955Z,101143.51
2019-02-04T01:48:53.895Z,101153.55
2019-02-04T01:51:23.113Z,101155.03
2019-02-04T01:53:53.234Z,101155.02
2019-02-04T01:56:23.009Z,101153.27
2019-02-04T01:58:52.762Z,101150.31
2019-02-04T02:01:22.248Z,101147.77
2019-02-04T02:03:51.762Z,101143.93
2019-02-04T02:06:23.611Z,101153.42
2019-02-04T02:11:52.239Z,101150.69
2019-02-04T02:14:24.259Z,101159.03
2019-02-04T02:16:54.308Z,101161.75
2019-02-04T02:19:24.079Z,101159.33
2019-02-04T02:21:53.877Z,101155.27
2019-02-04T02:24:23.054Z,101154.48
2019-02-04T02:26:52.837Z,101158.06
2019-02-04T02:29:22.622Z,101146.70
2019-02-04T02:31:52.531Z,101136.77
2019-02-04T02:34:21.728Z,101142.72
2019-02-04T02:36:51.598Z,101146.55
2019-02-04T02:39:20.798Z,101142.36
2019-02-04T02:41:52.025Z,101140.84
2019-02-04T02:44:21.340Z,101146.36
2019-02-04T02:46:50.817Z,101151.52
2019-02-04T02:49:20.025Z,101143.34
2019-02-04T02:51:50.074Z,101139.13
2019-02-04T02:54:19.333Z,101140.38
2019-02-04T02:56:50.511Z,101149.58
2019-02-04T02:59:19.709Z,101154.91
2019-02-04T03:01:48.938Z,101156.75
2019-02-04T03:04:18.132Z,101164.40
2019-02-04T03:06:47.624Z,101172.85
2019-02-04T03:09:17.294Z,101172.41
2019-02-04T03:11:47.201Z,101176.00
2019-02-04T03:14:16.702Z,101182.11
2019-02-04T03:16:46.865Z,101172.67
2019-02-04T03:19:16.126Z,101174.69
2019-02-04T03:21:46.067Z,101168.73
2019-02-04T03:24:15.841Z,101166.67
2019-02-04T03:26:45.169Z,101167.52
2019-02-04T03:29:14.565Z,101171.94
2019-02-04T03:31:46.113Z,101174.04
2019-02-04T03:39:27.955Z,101178.73
2019-02-04T03:41:57.332Z,101177.53
2019-02-04T03:44:26.665Z,101155.05
2019-02-04T03:46:56.952Z,101184.23
2019-02-04T03:49:26.790Z,101191.11
2019-02-04T03:51:56.539Z,101193.28
2019-02-04T03:54:25.909Z,101202.50
2019-02-04T03:56:55.573Z,101200.41
2019-02-04T03:59:25.776Z,101193.37
2019-02-04T04:01:55.841Z,101195.03
2019-02-04T04:04:25.125Z,101198.79
2019-02-04T04:22:56.286Z,101198.33
2019-02-04T04:25:26.427Z,101200.22
2019-02-04T04:27:56.260Z,101169.84
2019-02-04T04:30:27.252Z,101191.72
2019-02-04T04:32:59.415Z,101190.04
2019-02-04T04:35:28.604Z,101191.86
2019-02-04T04:37:58.512Z,101190.45
2019-02-04T04:40:27.970Z,101186.70
2019-02-04T04:42:57.770Z,101190.45
2019-02-04T04:45:27.844Z,101193.64
2019-02-04T04:47:57.124Z,101196.11
2019-02-04T04:50:27.228Z,101192.78
2019-02-04T04:52:56.987Z,101188.60
2019-02-04T04:55:27.067Z,101192.12
2019-02-04T04:57:56.686Z,101189.78
2019-02-04T05:03:36.681Z,101189.52
2019-02-04T05:06:06.136Z,101188.88
2019-02-04T05:08:35.876Z,101185.53
2019-02-04T05:11:05.364Z,101176.93
2019-02-04T05:13:35.457Z,101178.33
2019-02-04T05:16:04.941Z,101181.11
2019-02-04T05:18:38.145Z,101180.34
2019-02-04T05:21:24.968Z,101181.11
2019-02-04T05:23:54.421Z,101184.98
2019-02-04T05:26:24.307Z,101184.10
2019-02-04T05:28:53.813Z,101183.03
2019-02-04T05:31:23.664Z,101183.81
2019-02-04T05:33:53.521Z,101179.78
2019-02-04T05:36:22.727Z,101182.28
2019-02-04T05:38:52.475Z,101186.01
2019-02-04T05:41:22.224Z,101190.52
2019-02-04T05:43:51.408Z,101200.91
2019-02-04T05:46:20.652Z,101204.52
2019-02-04T05:48:50.128Z,101203.22
2019-02-04T05:51:19.595Z,101209.66
2019-02-04T05:53:48.803Z,101205.92
2019-02-04T05:56:18.589Z,101209.44
2019-02-04T05:58:48.649Z,101204.55
2019-02-04T06:01:18.105Z,101209.39
2019-02-04T06:03:47.346Z,101209.41
2019-02-04T06:06:16.552Z,101205.55
2019-02-04T06:08:45.754Z,101206.59
2019-02-04T06:11:15.209Z,101208.22
2019-02-04T06:13:44.699Z,101206.39
2019-02-04T06:16:13.986Z,101207.75
2019-02-04T06:18:43.182Z,101205.61
2019-02-04T06:21:12.363Z,101201.42
2019-02-04T06:23:41.836Z,101205.17
2019-02-04T06:26:11.824Z,101199.00
2019-02-04T06:28:41.298Z,101206.69
2019-02-04T06:31:10.807Z,101179.45
2019-02-04T06:33:40.964Z,101197.37
2019-02-04T06:36:10.790Z,101196.50
2019-02-04T06:39:00.491Z,101194.98
2019-02-04T06:41:29.760Z,101192.54
2019-02-04T06:43:59.576Z,101186.80
2019-02-04T06:46:29.281Z,101191.51
2019-02-04T06:48:59.000Z,101185.80
2019-02-04T06:51:28.652Z,101187.59
2019-02-04T06:53:58.362Z,101187.75
2019-02-04T06:56:27.910Z,101189.32
2019-02-04T06:58:57.242Z,101167.84
2019-02-04T07:01:26.713Z,101179.00
2019-02-04T07:03:56.319Z,101189.09
2019-02-04T07:06:27.496Z,101176.93
2019-02-04T07:08:56.687Z,101162.87
2019-02-04T07:11:26.415Z,101166.94
2019-02-04T07:13:55.929Z,101174.36
2019-02-04T07:16:25.688Z,101178.52
2019-02-04T07:18:55.420Z,101180.05
2019-02-04T07:21:27.400Z,101180.23
2019-02-04T07:23:56.606Z,101185.72
2019-02-04T07:26:26.431Z,101185.47
2019-02-04T07:28:55.887Z,101179.20
2019-02-04T07:31:25.071Z,101178.58
2019-02-04T07:33:54.660Z,101176.50
2019-02-04T07:36:24.455Z,101176.23
2019-02-04T07:38:53.909Z,101177.62
2019-02-04T07:41:23.397Z,101175.16
2019-02-04T07:43:52.877Z,101173.17
2019-02-04T07:46:22.101Z,101180.23
2019-02-04T07:48:51.853Z,101176.91
2019-02-04T07:51:21.347Z,101180.45
2019-02-04T07:53:50.986Z,101180.98
2019-02-04T07:56:20.387Z,101179.87
2019-02-04T07:58:49.590Z,101190.25
2019-02-04T08:01:19.073Z,101193.61
2019-02-04T08:03:48.272Z,101202.50
2019-02-04T08:06:18.001Z,101210.31
2019-02-04T08:08:47.759Z,101215.45
2019-02-04T08:11:17.523Z,101216.20
2019-02-04T08:13:46.704Z,101229.75
2019-02-04T08:16:15.890Z,101227.44
2019-02-04T08:18:45.912Z,101215.44
2019-02-04T08:21:15.634Z,101214.64
2019-02-04T08:23:45.529Z,101203.13
2019-02-04T08:26:15.103Z,101193.66
2019-02-04T08:28:44.302Z,101184.66
2019-02-04T08:31:13.479Z,101175.16
2019-02-04T08:33:43.514Z,101162.66
2019-02-04T08:36:13.253Z,101154.45
2019-02-04T08:38:43.400Z,101136.41
2019-02-04T08:41:13.051Z,101116.02
2019-02-04T08:43:42.629Z,101111.52
2019-02-04T08:46:12.081Z,101110.63
2019-02-04T08:48:41.825Z,101099.78
2019-02-04T08:51:11.915Z,101087.55
2019-02-04T08:53:41.498Z,101078.40
2019-02-04T08:56:10.646Z,101070.36
2019-02-04T08:58:40.143Z,101069.80
2019-02-04T09:01:09.595Z,101055.44
2019-02-04T09:06:35.210Z,101057.33
2019-02-04T09:09:43.784Z,101057.12
2019-02-04T09:12:13.581Z,101057.55
2019-02-04T09:14:43.336Z,101062.25
2019-02-04T09:17:12.802Z,101066.48
2019-02-04T09:19:42.005Z,101066.42
2019-02-04T09:22:11.511Z,101055.69
2019-02-04T09:24:41.029Z,101061.04
2019-02-04T09:27:10.477Z,101058.48
2019-02-04T09:29:40.360Z,101060.91
2019-02-04T09:32:09.793Z,101061.59
2019-02-04T09:34:39.278Z,101066.22
2019-02-04T09:37:08.698Z,101066.15
2019-02-04T09:39:38.190Z,101056.78
2019-02-04T09:42:07.360Z,101059.72
2019-02-04T09:44:36.817Z,101059.03
2019-02-04T09:47:06.283Z,101053.83
2019-02-04T09:49:35.742Z,101050.96
2019-02-04T09:52:05.196Z,101045.55
2019-02-04T09:54:34.390Z,101041.79
2019-02-04T09:57:04.212Z,101042.92
2019-02-04T09:59:33.727Z,101046.95
2019-02-04T10:02:03.203Z,101042.83
2019-02-04T10:04:32.379Z,101046.70
2019-02-04T10:07:01.833Z,101040.20
2019-02-04T10:09:31.297Z,101044.08
2019-02-04T10:12:00.453Z,101042.94
2019-02-04T10:14:30.497Z,101043.47
2019-02-04T10:16:59.683Z,101040.50
2019-02-04T10:19:31.137Z,101040.70
2019-02-04T10:22:00.410Z,101047.55
2019-02-04T10:24:29.613Z,101041.38
2019-02-04T10:26:59.603Z,101042.94
2019-02-04T10:29:29.003Z,101039.34
2019-02-04T10:31:58.255Z,101045.85
2019-02-04T10:34:27.649Z,101040.83
2019-02-04T10:36:57.084Z,101039.11
2019-02-04T10:39:26.538Z,101050.39
2019-02-04T10:41:58.080Z,101042.55
2019-02-04T10:44:27.656Z,101049.23
2019-02-04T10:46:58.477Z,101042.62
2019-02-04T10:49:27.979Z,101042.30
2019-02-04T10:51:57.140Z,101043.19
2019-02-04T10:54:26.363Z,101042.17
2019-02-04T10:56:55.603Z,101038.56
2019-02-04T10:59:25.075Z,101044.02
2019-02-04T11:01:55.979Z,101038.62
2019-02-04T11:04:26.278Z,101035.75
2019-02-04T11:06:55.690Z,101040.63
2019-02-04T11:09:25.823Z,101033.58
2019-02-04T11:14:30.338Z,101040.60
2019-02-04T11:16:59.817Z,101044.03
2019-02-04T11:19:28.972Z,101044.67
2019-02-04T11:21:58.504Z,101038.30
2019-02-04T11:24:27.928Z,101040.03
2019-02-04T11:26:57.646Z,101037.59
2019-02-04T11:29:29.141Z,101041.45
2019-02-04T11:31:58.627Z,101045.03
2019-02-04T11:34:27.840Z,101050.71
2019-02-04T11:36:57.042Z,101056.13
2019-02-04T11:39:26.772Z,101060.14
2019-02-04T11:41:56.262Z,101050.22
2019-02-04T11:44:25.421Z,101051.72
2019-02-04T11:46:55.235Z,101050.05
2019-02-04T11:49:24.649Z,101040.83
2019-02-04T11:51:53.921Z,101035.44
2019-02-04T11:54:23.651Z,101048.94
2019-02-04T11:56:53.143Z,101033.72
2019-02-04T11:59:22.926Z,101025.28
2019-02-04T12:01:52.415Z,101037.73
2019-02-04T12:04:21.563Z,101047.64
2019-02-04T12:07:09.738Z,101048.19
2019-02-04T12:09:39.374Z,101044.58
2019-02-04T12:12:08.986Z,101051.33
2019-02-04T12:14:38.154Z,101057.48
2019-02-04T12:17:07.658Z,101055.72
2019-02-04T12:19:37.614Z,101051.50
2019-02-04T12:22:26.048Z,101059.45
2019-02-04T12:24:55.528Z,101067.17
2019-02-04T12:27:31.749Z,101067.77
2019-02-04T12:32:45.112Z,101072.02
2019-02-04T12:35:53.687Z,101083.33
2019-02-04T12:38:22.854Z,101078.53
2019-02-04T12:40:52.886Z,101081.98
2019-02-04T12:43:22.711Z,101078.91
2019-02-04T12:45:52.636Z,101066.56
2019-02-04T12:48:21.819Z,101068.57
2019-02-04T12:50:51.016Z,101062.81
2019-02-04T12:53:20.569Z,101071.81
2019-02-04T12:55:50.012Z,101073.28
2019-02-04T12:58:19.456Z,101065.84
2019-02-04T13:00:48.624Z,101068.73
2019-02-04T13:03:17.821Z,101061.25
2019-02-04T13:05:51.324Z,101060.80
2019-02-04T13:08:20.768Z,101066.55
2019-02-04T13:10:50.845Z,101066.42
2019-02-04T13:13:22.354Z,101063.91
2019-02-04T13:15:51.539Z,101075.46
2019-02-04T13:18:20.993Z,101071.59
2019-02-04T13:20:50.160Z,101061.77
2019-02-04T13:23:19.337Z,101074.24
2019-02-04T13:25:48.826Z,101072.55
2019-02-04T13:28:20.460Z,101063.59
2019-02-04T13:30:49.975Z,101062.77
2019-02-04T13:33:21.644Z,101061.26
2019-02-04T13:35:51.407Z,101058.31
2019-02-04T13:38:20.881Z,101062.80
2019-02-04T13:40:50.916Z,101058.99
2019-02-04T13:43:20.532Z,101062.52
2019-02-04T13:45:49.967Z,101066.34
2019-02-04T13:48:19.467Z,101063.28
2019-02-04T13:50:49.055Z,101059.95
2019-02-04T13:53:18.508Z,101059.77
2019-02-04T13:55:47.947Z,101060.42
2019-02-04T13:58:17.137Z,101062.27
2019-02-04T14:00:48.841Z,101067.17
2019-02-04T14:03:18.405Z,101055.55
2019-02-04T14:05:47.566Z,101054.20
2019-02-04T14:11:12.200Z,101047.52
2019-02-04T14:13:41.670Z,101041.85
2019-02-04T14:16:11.139Z,101043.02
2019-02-04T14:18:40.608Z,101041.09
2019-02-04T14:21:10.183Z,101040.25
2019-02-04T14:23:41.648Z,101046.09
2019-02-04T14:26:11.142Z,101046.47
2019-02-04T14:28:40.306Z,101031.54
2019-02-04T14:31:09.601Z,101037.05
2019-02-04T14:33:39.029Z,101029.38
2019-02-04T14:36:08.559Z,101026.83
2019-02-04T14:38:38.577Z,101019.72
2019-02-04T14:41:30.109Z,101022.98
2019-02-04T14:44:18.897Z,101020.77
2019-02-04T14:47:19.665Z,101019.42
2019-02-04T14:50:12.644Z,101015.00
2019-02-04T14:53:19.874Z,101009.39
2019-02-04T14:56:27.467Z,101001.50
2019-02-04T14:59:35.033Z,101001.20
2019-02-04T15:02:29.856Z,100996.61
2019-02-04T15:05:37.421Z,100999.63
2019-02-04T15:08:33.883Z,100993.23
2019-02-04T15:11:41.398Z,100997.56
2019-02-04T15:14:48.926Z,101003.84
2019-02-04T15:17:58.367Z,100992.96
2019-02-04T15:21:05.947Z,100987.40
2019-02-04T15:24:13.219Z,100994.94
2019-02-04T15:27:21.052Z,100996.09
2019-02-04T15:30:29.512Z,100992.77
2019-02-04T15:33:36.782Z,100993.14
2019-02-04T15:36:44.281Z,100984.24
2019-02-04T15:39:47.829Z,100978.67
2019-02-04T15:42:55.390Z,100984.73
2019-02-04T15:46:02.684Z,100959.48
2019-02-04T15:48:53.860Z,100965.45
2019-02-04T15:57:28.970Z,100949.14
2019-02-04T15:59:58.496Z,100948.67
2019-02-04T16:02:27.680Z,100950.08
2019-02-04T16:04:57.528Z,100940.89
2019-02-04T16:07:26.710Z,100946.97
2019-02-04T16:09:57.925Z,100944.98
2019-02-04T16:12:27.823Z,100945.15
2019-02-04T16:14:57.034Z,100957.35
2019-02-04T16:17:26.468Z,100958.27
2019-02-04T16:19:55.946Z,100964.26
2019-02-04T16:22:25.428Z,100962.22
2019-02-04T16:24:56.870Z,100962.64
2019-02-04T16:27:26.177Z,100978.92
2019-02-04T16:29:55.404Z,100981.38
2019-02-04T16:32:24.593Z,100983.28
2019-02-04T16:34:54.045Z,100980.48
2019-02-04T16:37:23.227Z,100977.92
2019-02-04T16:39:52.598Z,100976.02
2019-02-04T16:42:21.821Z,100968.98
2019-02-04T16:44:51.044Z,100961.61
2019-02-04T16:47:20.497Z,100957.67
2019-02-04T16:49:49.724Z,100962.67
2019-02-04T16:52:19.149Z,100959.69
2019-02-04T16:54:48.342Z,100962.95
2019-02-04T16:57:17.512Z,100980.13
2019-02-04T16:59:46.705Z,100987.83
2019-02-04T17:02:15.861Z,100982.89
2019-02-04T17:04:45.049Z,100995.80
2019-02-04T17:07:14.248Z,101002.58
2019-02-04T17:09:43.618Z,101013.88
2019-02-04T17:12:13.096Z,101017.39
2019-02-04T17:14:42.897Z,101018.88
2019-02-04T17:17:12.067Z,101022.97
2019-02-04T17:19:41.540Z,101022.00
2019-02-04T17:22:10.967Z,101027.00
2019-02-04T17:24:40.495Z,101009.92
2019-02-04T17:27:09.688Z,100992.55
2019-02-04T17:29:39.197Z,100980.01
2019-02-04T17:32:08.645Z,100961.10
2019-02-04T17:34:37.839Z,100959.87
2019-02-04T17:37:07.019Z,100949.56
2019-02-04T17:39:36.521Z,100934.20
2019-02-04T17:42:45.073Z,100936.31
2019-02-04T17:45:15.595Z,100940.91
2019-02-04T17:48:05.279Z,100931.73
2019-02-04T17:50:34.786Z,100924.72
2019-02-04T17:53:03.980Z,100927.28
2019-02-04T17:55:33.738Z,100931.44
2019-02-04T17:58:02.913Z,100938.45
2019-02-04T18:03:11.671Z,100951.41
2019-02-04T18:05:40.937Z,100938.99
2019-02-04T18:08:10.114Z,100937.80
2019-02-04T18:11:00.190Z,100936.09
2019-02-04T18:13:29.477Z,100940.55
2019-02-04T18:15:59.089Z,100936.72
2019-02-04T18:18:28.557Z,100931.16
2019-02-04T18:20:57.751Z,100927.51
2019-02-04T18:23:26.911Z,100935.19
2019-02-04T18:25:56.097Z,100936.02
2019-02-04T18:28:25.272Z,100929.55
2019-02-04T18:30:54.485Z,100945.55
2019-02-04T18:33:23.790Z,100935.19
2019-02-04T18:36:12.321Z,100938.99
2019-02-04T18:39:19.859Z,100939.89
2019-02-04T18:41:49.576Z,100931.15
2019-02-04T18:44:37.980Z,100934.27
2019-02-04T18:47:07.308Z,100931.78
2019-02-04T18:49:36.983Z,100926.36
2019-02-04T18:52:06.359Z,100921.58
2019-02-04T18:54:37.721Z,100927.27
2019-02-04T18:57:07.181Z,100925.59
2019-02-04T18:59:38.223Z,100939.13
2019-02-04T19:02:07.628Z,100942.78
2019-02-04T19:04:37.010Z,100941.03
2019-02-04T19:07:06.448Z,100944.41
2019-02-04T19:09:35.701Z,100930.25
2019-02-04T19:12:23.997Z,100934.82
2019-02-04T19:14:54.772Z,100936.61
2019-02-04T19:17:24.345Z,100945.27
2019-02-04T19:19:53.801Z,100941.11
2019-02-04T19:22:23.567Z,100944.36
2019-02-04T19:24:55.995Z,100941.73
2019-02-04T19:27:25.222Z,100935.32
2019-02-04T19:29:54.591Z,100932.14
2019-02-04T19:32:23.930Z,100929.88
2019-02-04T19:34:53.216Z,100912.88
2019-02-04T19:37:23.033Z,100915.65
2019-02-04T19:39:53.480Z,100919.81
2019-02-04T19:42:22.814Z,100919.64
2019-02-04T19:44:51.950Z,100928.63
2019-02-04T19:47:33.163Z,100925.17
2019-02-04T19:50:02.826Z,100928.47
2019-02-04T19:52:32.010Z,100935.11
2019-02-04T19:55:01.187Z,100945.77
2019-02-04T19:57:32.775Z,100946.77
2019-02-04T20:00:02.112Z,100949.66
2019-02-04T20:02:31.659Z,100948.89
2019-02-04T20:05:01.928Z,100942.82
2019-02-04T20:07:50.293Z,100932.34
2019-02-04T20:10:42.263Z,100938.92
2019-02-04T20:13:12.067Z,100937.28
2019-02-04T20:16:01.308Z,100937.80
2019-02-04T20:18:31.975Z,100930.44
2019-02-04T20:21:01.921Z,100921.63
2019-02-04T20:23:31.776Z,100934.84
2019-02-04T20:26:20.964Z,100943.02
2019-02-04T20:28:50.238Z,100948.02
2019-02-04T20:31:19.548Z,100946.20
2019-02-04T20:33:50.507Z,100947.61
2019-02-04T20:36:19.673Z,100943.80
2019-02-04T20:38:48.848Z,100949.14
2019-02-04T20:41:18.046Z,100943.28
2019-02-04T20:43:47.595Z,100957.55
2019-02-04T20:46:17.067Z,100955.42
2019-02-04T20:48:46.806Z,100957.41
2019-02-04T20:51:16.970Z,100956.13
2019-02-04T20:53:46.291Z,100945.97
2019-02-04T20:56:15.806Z,100949.06
2019-02-04T20:58:45.520Z,100958.45
2019-02-04T21:01:16.452Z,100957.84
2019-02-04T21:06:34.611Z,100971.97
2019-02-04T21:09:24.176Z,100973.45
2019-02-04T21:11:53.666Z,100971.03
2019-02-04T21:14:22.837Z,100987.20
2019-02-04T21:16:52.313Z,100982.20
2019-02-04T21:19:22.129Z,100980.09
2019-02-04T21:21:51.581Z,100991.29
2019-02-04T21:24:20.774Z,100993.77
2019-02-04T21:26:50.219Z,101003.09
2019-02-04T21:29:19.434Z,100996.31
2019-02-04T21:31:48.844Z,100995.31
2019-02-04T21:34:18.050Z,101009.53
2019-02-04T21:36:47.741Z,101000.34
2019-02-04T21:39:16.947Z,101002.05
2019-02-04T21:41:46.126Z,101005.34
2019-02-04T21:44:15.333Z,101004.49
2019-02-04T21:46:44.524Z,101002.52
2019-02-04T21:49:14.289Z,101001.31
2019-02-04T21:57:18.296Z,101003.73
2019-02-04T21:59:47.482Z,101002.16
2019-02-04T22:02:17.091Z,101004.80
2019-02-04T22:04:46.284Z,101008.12
2019-02-04T22:07:15.708Z,101008.18
2019-02-04T22:09:45.165Z,101013.25
2019-02-04T22:12:14.923Z,101015.80
2019-02-04T22:14:44.131Z,101001.75
2019-02-04T22:17:13.850Z,101001.40
2019-02-04T22:19:43.050Z,100999.77
2019-02-04T22:22:12.549Z,101002.38
2019-02-04T22:24:41.732Z,100999.86
2019-02-04T22:27:10.899Z,101012.19
2019-02-04T22:29:40.074Z,101004.42
2019-02-04T22:32:09.489Z,100999.40
2019-02-04T22:48:03.404Z,100970.36
2019-02-04T22:50:32.669Z,100970.77
2019-02-04T22:53:02.630Z,100956.63
2019-02-04T22:55:33.039Z,100943.33
2019-02-04T22:58:02.582Z,100954.44
2019-02-04T23:01:13.784Z,100955.19
2019-02-04T23:03:43.086Z,100957.40
2019-02-04T23:06:12.271Z,100964.38
2019-02-04T23:08:41.428Z,100962.81
2019-02-04T23:11:10.622Z,100964.88
2019-02-04T23:13:41.511Z,100974.77
2019-02-04T23:16:10.714Z,100971.02
2019-02-04T23:18:39.898Z,100979.87
2019-02-04T23:21:09.095Z,100985.91
2019-02-04T23:23:38.266Z,100980.15
2019-02-04T23:26:07.449Z,100977.30
2019-02-04T23:28:36.641Z,100979.00
